Time;durP1;ratioP1;P1;durP2;ratioP2;P2;SDS_P1;SDS_P2;PMS_P1;PMS_P2;Temp;Humidity;BMP_temperature;BMP_pressure;BME280_temperature;BME280_humidity;BME280_pressure;Samples;Min_cycle;Max_cycle;Signal;HPM_P1;HPM_P2
2021/07/25 00:02:10;;;;;;;72.55;55.00;;;;;;;20.66;67.10;100816.88;10487283;28;20186;-75
2021/07/25 00:07:12;;;;;;;81.82;54.83;;;;;;;20.55;67.56;100807.72;10491090;28;20126;-75
2021/07/25 00:12:13;;;;;;;67.65;48.63;;;;;;;20.65;67.34;100824.28;10492856;28;20110;-75
2021/07/25 00:17:13;;;;;;;78.72;52.53;;;;;;;20.73;66.96;100809.19;10491355;28;20123;-76
2021/07/25 00:22:14;;;;;;;79.25;52.67;;;;;;;20.95;66.38;100821.97;10490121;28;20045;-75
2021/07/25 00:27:15;;;;;;;85.32;56.53;;;;;;;20.90;66.38;100806.25;10468803;28;20100;-75
2021/07/25 00:32:15;;;;;;;81.70;59.42;;;;;;;21.01;66.41;100807.94;10471284;28;20136;-76
2021/07/25 00:37:16;;;;;;;79.97;54.83;;;;;;;21.05;66.07;100805.47;10487642;28;20028;-75
2021/07/25 00:42:16;;;;;;;76.28;56.55;;;;;;;20.96;66.08;100788.63;10469703;28;20028;-75
2021/07/25 00:47:16;;;;;;;77.93;52.80;;;;;;;20.52;66.03;100711.97;10493994;28;20078;-76
2021/07/25 00:52:17;;;;;;;81.78;51.80;;;;;;;21.06;65.97;100802.47;10480360;28;20024;-76
2021/07/25 00:57:17;;;;;;;64.45;48.00;;;;;;;21.03;65.72;100799.44;10499222;28;20040;-75
2021/07/25 01:02:18;;;;;;;82.60;53.03;;;;;;;20.86;66.43;100803.19;10498474;28;20120;-75
2021/07/25 01:07:43;;;;;;;83.10;56.75;;;;;;;20.87;65.50;100798.53;10496263;28;20055;-75
2021/07/25 01:12:46;;;;;;;75.43;51.97;;;;;;;20.87;66.52;100780.09;10497069;28;20379;-75
2021/07/25 01:17:47;;;;;;;72.10;52.88;;;;;;;21.07;66.76;100784.03;10460404;28;20485;-75
2021/07/25 01:22:49;;;;;;;77.18;50.33;;;;;;;21.12;66.25;100778.50;10495284;28;20173;-75
2021/07/25 01:28:16;;;;;;;68.10;49.05;;;;;;;21.12;65.18;100778.50;10493678;28;20490;-75
2021/07/25 01:33:20;;;;;;;71.32;49.72;;;;;;;20.82;66.51;100735.19;10474608;28;20044;-75
2021/07/25 01:38:22;;;;;;;90.45;51.30;;;;;;;20.95;66.23;100781.50;10458444;28;20375;-74
2021/07/25 01:43:23;;;;;;;67.82;48.60;;;;;;;20.97;66.38;100781.22;10457035;28;20066;-75
2021/07/25 01:48:24;;;;;;;63.75;45.13;;;;;;;20.90;66.57;100756.72;10492158;28;20056;-75
2021/07/25 01:53:24;;;;;;;56.47;41.10;;;;;;;21.07;66.27;100775.75;10492201;28;20054;-75
2021/07/25 01:58:25;;;;;;;52.03;40.10;;;;;;;21.05;66.86;100765.00;10492598;28;20119;-75
2021/07/25 02:03:26;;;;;;;58.78;41.42;;;;;;;21.04;66.42;100770.78;10495694;28;20043;-75
2021/07/25 02:08:26;;;;;;;59.70;39.85;;;;;;;21.10;66.32;100769.72;10497186;28;20036;-75
2021/07/25 02:13:27;;;;;;;56.97;38.50;;;;;;;21.20;65.85;100764.22;10492416;28;20076;-75
2021/07/25 02:18:28;;;;;;;53.65;38.05;;;;;;;21.10;65.88;100759.53;10493404;28;20047;-75
2021/07/25 02:23:29;;;;;;;51.38;38.33;;;;;;;21.15;66.03;100761.44;10478584;28;20433;-76
2021/07/25 02:28:29;;;;;;;55.47;37.80;;;;;;;21.05;65.82;100770.50;10494534;28;20198;-75
2021/07/25 02:33:30;;;;;;;41.60;36.08;;;;;;;21.06;65.80;100766.69;10493800;28;20079;-75
2021/07/25 02:38:30;;;;;;;52.83;38.05;;;;;;;21.04;65.84;100763.34;10493630;28;20036;-75
2021/07/25 02:43:31;;;;;;;49.70;39.28;;;;;;;20.99;66.05;100741.31;10492524;28;20033;-75
2021/07/25 02:48:31;;;;;;;58.25;36.95;;;;;;;21.01;66.18;100744.63;10490909;28;20025;-75
2021/07/25 02:53:31;;;;;;;55.40;40.28;;;;;;;21.01;66.31;100755.63;10457941;28;20090;-75
2021/07/25 02:58:32;;;;;;;48.28;36.85;;;;;;;20.89;67.43;100757.78;10493720;28;20518;-75
2021/07/25 03:03:32;;;;;;;59.05;40.13;;;;;;;20.90;67.82;100759.47;10491914;28;20360;-75
2021/07/25 03:08:33;;;;;;;46.72;37.58;;;;;;;20.53;67.53;100694.38;10492001;28;20036;-75
2021/07/25 03:13:34;;;;;;;59.05;40.83;;;;;;;20.95;67.39;100744.88;10493828;28;20028;-75
2021/07/25 03:18:35;;;;;;;45.50;34.92;;;;;;;20.94;67.16;100754.25;10492881;28;20041;-74
2021/07/25 03:23:36;;;;;;;57.20;38.58;;;;;;;20.83;67.53;100745.94;10492574;28;20067;-75
2021/07/25 03:28:36;;;;;;;46.15;34.63;;;;;;;20.76;67.29;100739.84;10470807;28;20409;-75
2021/07/25 03:33:37;;;;;;;42.50;29.17;;;;;;;20.81;67.01;100747.31;10489274;28;20105;-75
2021/07/25 03:38:37;;;;;;;36.60;24.95;;;;;;;20.80;66.60;100743.72;10490619;28;20383;-75
2021/07/25 03:43:38;;;;;;;43.90;24.90;;;;;;;20.70;66.47;100731.84;10489652;28;20040;-75
2021/07/25 03:48:38;;;;;;;32.60;22.95;;;;;;;20.64;66.52;100720.84;10488032;28;20040;-75
2021/07/25 03:53:39;;;;;;;30.40;22.42;;;;;;;20.49;66.25;100698.72;10469202;28;20071;-75
2021/07/25 03:58:39;;;;;;;35.22;20.65;;;;;;;20.61;66.22;100724.13;10487460;28;20053;-75
2021/07/25 04:03:40;;;;;;;35.13;21.92;;;;;;;20.63;65.93;100721.91;10468440;28;20040;-75
2021/07/25 04:08:40;;;;;;;28.13;21.67;;;;;;;20.61;65.92;100715.88;10489162;28;20043;-75
2021/07/25 04:13:41;;;;;;;31.33;22.52;;;;;;;20.56;65.39;100706.78;10488415;28;20033;-75
2021/07/25 04:18:42;;;;;;;28.85;21.38;;;;;;;20.54;65.55;100712.53;10487920;28;20344;-76
2021/07/25 04:23:42;;;;;;;25.83;21.42;;;;;;;20.45;66.24;100716.84;10497927;28;20096;-75
2021/07/25 04:28:43;;;;;;;28.20;20.85;;;;;;;20.50;66.41;100713.31;10498075;28;20181;-75
2021/07/25 04:33:44;;;;;;;29.77;19.05;;;;;;;20.52;65.90;100711.16;10494763;28;20055;-75
2021/07/25 04:38:45;;;;;;;27.30;17.55;;;;;;;20.58;65.98;100712.81;10459270;28;20131;-75
2021/07/25 04:43:45;;;;;;;18.73;13.20;;;;;;;20.64;65.90;100726.34;10494075;28;20448;-75
2021/07/25 04:49:08;;;;;;;21.45;13.30;;;;;;;20.78;65.48;100729.41;10494840;28;20040;-75
2021/07/25 04:54:14;;;;;;;17.60;13.57;;;;;;;20.71;65.57;100706.84;10462450;28;20051;-75
2021/07/25 04:59:18;;;;;;;17.40;13.43;;;;;;;20.77;65.66;100722.25;10494031;28;20036;-75
2021/07/25 05:04:20;;;;;;;16.10;10.77;;;;;;;20.75;65.68;100702.44;10476129;28;20031;-75
2021/07/25 05:09:21;;;;;;;25.98;12.43;;;;;;;20.72;65.60;100724.16;10458215;28;20444;-75
2021/07/25 05:14:34;;;;;;;10.57;9.57;;;;;;;20.83;65.32;100725.84;10494280;28;20039;-75
2021/07/25 05:19:57;;;;;;;12.90;9.90;;;;;;;20.90;65.23;100738.28;10474830;28;20056;-75
2021/07/25 05:24:59;;;;;;;18.35;11.13;;;;;;;20.76;65.36;100703.25;10494820;28;20481;-75
2021/07/25 05:29:59;;;;;;;18.25;10.63;;;;;;;20.50;64.81;100645.34;10476598;28;20174;-75
2021/07/25 05:35:00;;;;;;;16.60;10.57;;;;;;;22.00;63.93;100731.50;10461595;28;20033;-74
2021/07/25 05:40:00;;;;;;;11.88;10.10;;;;;;;22.40;62.33;100740.84;10494718;28;20035;-75
2021/07/25 05:45:01;;;;;;;15.35;9.48;;;;;;;21.92;62.96;100732.06;10495152;28;20036;-75
2021/07/25 05:50:02;;;;;;;15.85;10.02;;;;;;;21.22;63.27;100617.97;10477189;28;20388;-75
2021/07/25 05:55:03;;;;;;;18.05;10.50;;;;;;;22.45;62.87;100743.56;10481038;28;20115;-75
2021/07/25 06:00:04;;;;;;;15.02;11.43;;;;;;;23.71;61.09;100736.84;10485250;28;20098;-75
2021/07/25 06:05:05;;;;;;;14.50;11.90;;;;;;;24.90;58.92;100743.59;10502675;28;20149;-75
2021/07/25 06:10:05;;;;;;;19.02;10.48;;;;;;;23.80;59.77;100721.28;10501819;28;20089;-74
2021/07/25 06:15:06;;;;;;;13.40;10.82;;;;;;;25.23;58.93;100752.84;10502988;28;20037;-75
2021/07/25 06:20:07;;;;;;;13.95;10.75;;;;;;;25.22;57.47;100744.84;10468922;28;20487;-75
2021/07/25 06:25:07;;;;;;;14.95;11.43;;;;;;;24.56;58.36;100760.34;10502779;28;20150;-75
2021/07/25 06:30:11;;;;;;;14.43;10.30;;;;;;;24.20;59.24;100751.59;10498129;28;20107;-75
2021/07/25 06:35:11;;;;;;;13.85;12.40;;;;;;;23.95;60.51;100739.66;10471111;28;20116;-75
2021/07/25 06:40:13;;;;;;;14.70;13.23;;;;;;;25.68;58.66;100738.56;10492532;28;20033;-75
2021/07/25 06:45:13;;;;;;;15.60;12.27;;;;;;;26.76;56.03;100735.47;10494274;28;20032;-75
2021/07/25 06:50:18;;;;;;;13.20;11.85;;;;;;;27.62;55.15;100740.22;10498212;28;20531;-75
2021/07/25 06:55:19;;;;;;;24.13;12.55;;;;;;;28.83;52.77;100737.25;10494246;28;20047;-75
2021/07/25 07:00:20;;;;;;;13.43;11.88;;;;;;;30.12;50.43;100732.81;10474813;28;20028;-75
2021/07/25 07:05:22;;;;;;;14.73;12.63;;;;;;;30.32;48.44;100710.91;10492560;28;20035;-75
2021/07/25 07:10:25;;;;;;;15.43;12.23;;;;;;;31.17;47.86;100715.47;10492457;28;20202;-72
2021/07/25 07:15:26;;;;;;;22.10;12.30;;;;;;;31.41;48.84;100709.22;10492122;28;20155;-73
2021/07/25 07:20:27;;;;;;;22.33;11.20;;;;;;;30.79;46.91;100605.44;10493535;28;20048;-73
2021/07/25 07:25:32;;;;;;;15.68;12.60;;;;;;;30.88;49.26;100713.56;10459609;28;20153;-74
2021/07/25 07:30:33;;;;;;;20.38;12.13;;;;;;;31.10;48.47;100720.81;10459810;28;20030;-74
2021/07/25 07:35:33;;;;;;;12.45;11.20;;;;;;;30.89;47.00;100730.03;10490448;28;20534;-73
2021/07/25 07:40:34;;;;;;;25.38;12.30;;;;;;;31.53;46.84;100658.91;10488552;28;20032;-75
2021/07/25 07:45:36;;;;;;;17.60;13.32;;;;;;;32.72;44.42;100733.81;10487242;28;20409;-74
2021/07/25 07:50:37;;;;;;;22.02;13.77;;;;;;;33.31;43.54;100716.38;10469992;28;20073;-74
2021/07/25 07:55:37;;;;;;;16.00;12.88;;;;;;;34.16;42.62;100722.78;10489749;28;20135;-74
2021/07/25 08:00:38;;;;;;;19.08;14.88;;;;;;;33.72;40.19;100646.97;10490273;28;20104;-74
2021/07/25 08:05:38;;;;;;;21.05;13.30;;;;;;;33.14;42.92;100719.50;10490470;28;20028;-74
2021/07/25 08:10:39;;;;;;;15.15;11.52;;;;;;;33.94;41.51;100727.81;10491015;28;20033;-73
2021/07/25 08:15:39;;;;;;;13.57;12.20;;;;;;;33.95;41.94;100714.56;10474013;28;20431;-74
2021/07/25 08:20:40;;;;;;;18.77;10.85;;;;;;;33.58;40.56;100714.78;10471064;28;20056;-74
2021/07/25 08:25:40;;;;;;;15.23;9.13;;;;;;;33.30;41.82;100742.81;10490315;28;20052;-75
2021/07/25 08:30:41;;;;;;;21.10;9.88;;;;;;;32.91;41.56;100734.00;10472558;28;20436;-74
2021/07/25 08:35:41;;;;;;;14.15;10.35;;;;;;;32.54;42.51;100756.44;10489326;28;20124;-75
2021/07/25 08:40:43;;;;;;;11.43;9.93;;;;;;;32.10;42.97;100730.94;10489954;28;20044;-75
2021/07/25 08:45:44;;;;;;;16.42;12.02;;;;;;;31.67;43.34;100746.19;10454347;28;20280;-74
2021/07/25 08:50:56;;;;;;;12.68;11.43;;;;;;;31.58;45.54;100776.22;10490181;28;20033;-74
2021/07/25 08:55:56;;;;;;;13.40;10.38;;;;;;;31.58;43.84;100764.22;10456339;28;20163;-75
2021/07/25 09:00:57;;;;;;;30.70;12.10;;;;;;;31.78;44.08;100748.53;10491231;28;20033;-76
2021/07/25 09:05:57;;;;;;;12.13;11.07;;;;;;;31.72;44.29;100747.97;10460634;28;20028;-75
2021/07/25 09:10:58;;;;;;;13.38;10.43;;;;;;;31.76;43.41;100742.50;10497932;28;20044;-75
2021/07/25 09:15:59;;;;;;;22.05;10.98;;;;;;;31.88;45.40;100762.97;10461373;28;20448;-75
2021/07/25 09:20:59;;;;;;;13.57;8.70;;;;;;;32.63;42.58;100762.75;10476713;28;20053;-76
2021/07/25 09:26:00;;;;;;;16.67;9.23;;;;;;;33.08;39.97;100766.59;10458910;28;20198;-74
2021/07/25 09:31:11;;;;;;;15.65;11.13;;;;;;;33.50;42.89;100781.13;10494548;28;20047;-75
2021/07/25 09:36:17;;;;;;;15.80;10.52;;;;;;;34.20;38.55;100768.66;10492941;28;20032;-75
2021/07/25 09:41:19;;;;;;;15.20;7.95;;;;;;;33.26;38.07;100615.63;10493322;28;20066;-74
2021/07/25 09:46:19;;;;;;;25.20;10.85;;;;;;;34.40;38.22;100767.59;10494379;28;20036;-74
2021/07/25 09:51:21;;;;;;;10.18;9.15;;;;;;;33.76;38.13;100768.63;10494008;28;20128;-75
2021/07/25 09:56:25;;;;;;;10.20;7.57;;;;;;;34.02;39.56;100779.44;10477672;28;20142;-76
2021/07/25 10:01:36;;;;;;;5.38;4.93;;;;;;;33.87;41.43;100774.56;10476706;28;20106;-75
2021/07/25 10:06:39;;;;;;;10.32;9.10;;;;;;;33.61;38.24;100696.41;10493657;28;20051;-75
2021/07/25 10:11:48;;;;;;;13.00;9.18;;;;;;;35.55;36.44;100702.72;10493410;28;20056;-77
2021/07/25 10:16:53;;;;;;;7.90;7.10;;;;;;;35.88;34.96;100737.94;10479653;28;20032;-74
2021/07/25 10:21:57;;;;;;;7.70;6.90;;;;;;;35.15;37.12;100752.53;10461835;28;20049;-75
2021/07/25 10:26:58;;;;;;;11.70;9.38;;;;;;;34.30;38.21;100756.06;10460874;28;20515;-75
2021/07/25 10:31:59;;;;;;;21.02;15.60;;;;;;;33.44;39.23;100765.72;10492160;28;20119;-75
2021/07/25 10:37:00;;;;;;;20.17;16.00;;;;;;;32.44;40.98;100762.53;10458018;28;20028;-75
2021/07/25 10:42:01;;;;;;;18.15;12.18;;;;;;;32.14;40.89;100759.09;10491573;28;20040;-75
2021/07/25 10:47:20;;;;;;;24.67;14.73;;;;;;;32.85;42.55;100763.47;10491538;28;20451;-78
2021/07/25 10:52:21;;;;;;;17.95;12.50;;;;;;;32.84;39.24;100756.22;10471976;28;20055;-74
2021/07/25 10:57:22;;;;;;;16.77;15.15;;;;;;;34.16;39.03;100734.03;10490441;28;20036;-76
2021/07/25 11:02:22;;;;;;;13.52;12.15;;;;;;;35.16;35.79;100668.91;10474882;28;20024;-75
2021/07/25 11:07:22;;;;;;;12.90;11.30;;;;;;;36.39;35.80;100760.22;10491302;28;20039;-76
2021/07/25 11:12:25;;;;;;;16.17;11.38;;;;;;;35.56;35.74;100735.31;10471996;28;20024;-75
2021/07/25 11:17:44;;;;;;;11.38;10.18;;;;;;;35.75;39.79;100757.84;10490194;28;20048;-77
2021/07/25 11:22:44;;;;;;;18.98;10.82;;;;;;;34.98;36.50;100750.13;10496413;28;20044;-75
2021/07/25 11:27:46;;;;;;;12.98;11.65;;;;;;;35.99;35.98;100751.03;10481503;28;20118;-76
2021/07/25 11:32:46;;;;;;;14.38;9.35;;;;;;;36.74;34.88;100751.56;10496276;28;20056;-75
2021/07/25 11:37:47;;;;;;;13.40;11.55;;;;;;;36.98;34.85;100751.16;10476272;28;20115;-76
2021/07/25 11:42:47;;;;;;;10.25;9.07;;;;;;;36.81;33.77;100716.97;10475761;28;20463;-77
2021/07/25 11:47:48;;;;;;;14.35;7.85;;;;;;;37.87;33.33;100751.44;10459803;28;20028;-77
2021/07/25 11:52:49;;;;;;;17.52;8.80;;;;;;;36.51;34.31;100752.41;10476703;28;20108;-79
2021/07/25 11:57:50;;;;;;;7.05;6.45;;;;;;;36.51;34.17;100679.06;10496331;28;20039;-76
2021/07/25 12:02:56;;;;;;;6.28;5.78;;;;;;;37.79;34.16;100743.31;10461937;28;20404;-76
2021/07/25 12:08:08;;;;;;;;;;;;;;;38.51;38.99;100745.63;10495620;28;20043;-77
2021/07/25 12:13:09;;;;;;;8.20;6.75;;;;;;;38.34;31.19;100746.28;10476426;28;20025;-77
2021/07/25 12:18:10;;;;;;;6.28;5.80;;;;;;;37.91;33.06;100728.91;10495685;28;20572;-76
2021/07/25 12:23:10;;;;;;;4.75;4.45;;;;;;;37.59;31.70;100561.84;10477114;28;20052;-76
2021/07/25 12:28:15;;;;;;;5.70;5.20;;;;;;;39.28;32.31;100743.75;10478773;28;20131;-75
2021/07/25 12:33:20;;;;;;;12.43;7.63;;;;;;;37.19;31.06;100770.38;10494954;28;20032;-75
2021/07/25 12:38:22;;;;;;;6.25;4.53;;;;;;;34.90;32.52;100751.94;10476740;28;20017;-75
2021/07/25 12:43:24;;;;;;;5.18;4.38;;;;;;;36.63;33.78;100759.88;10480544;28;20029;-76
2021/07/25 12:48:31;;;;;;;7.00;6.35;;;;;;;36.89;32.31;100735.66;10468028;28;20028;-76
2021/07/25 12:53:43;;;;;;;6.40;5.90;;;;;;;35.19;33.35;100744.16;10484033;28;20488;-73
2021/07/25 12:58:49;;;;;;;8.60;6.05;;;;;;;33.16;36.60;100731.19;10498797;28;20451;-73
2021/07/25 13:03:52;;;;;;;7.35;5.63;;;;;;;33.72;37.17;100739.63;10465854;28;20043;-74
2021/07/25 13:08:54;;;;;;;8.95;6.30;;;;;;;33.58;36.19;100666.25;10498908;28;20032;-74
2021/07/25 13:14:00;;;;;;;5.57;5.07;;;;;;;33.92;38.18;100730.19;10501665;28;20039;-74
2021/07/25 13:19:01;;;;;;;6.20;5.75;;;;;;;33.98;38.16;100697.84;10482755;28;20178;-74
2021/07/25 13:24:03;;;;;;;7.03;4.60;;;;;;;34.78;36.69;100723.09;10481468;28;20044;-75
2021/07/25 13:29:04;;;;;;;6.13;5.43;;;;;;;35.69;35.00;100727.53;10499266;28;20462;-74
2021/07/25 13:34:04;;;;;;;5.40;4.75;;;;;;;35.18;35.01;100701.13;10501703;28;20124;-73
2021/07/25 13:39:05;;;;;;;4.80;4.38;;;;;;;35.00;35.88;100727.22;10502064;28;20055;-76
2021/07/25 13:44:06;;;;;;;6.65;5.47;;;;;;;33.93;37.78;100684.03;10501672;28;20036;-73
2021/07/25 13:49:10;;;;;;;4.93;4.22;;;;;;;32.21;36.35;100608.03;10499888;28;20043;-74
2021/07/25 13:54:10;;;;;;;5.57;5.07;;;;;;;31.53;39.09;100604.91;10479584;28;20025;-75
2021/07/25 13:59:11;;;;;;;10.35;9.43;;;;;;;31.85;40.06;100688.03;10481462;28;20189;-72
2021/07/25 14:04:11;;;;;;;21.42;16.45;;;;;;;32.21;41.56;100741.69;10482151;28;20375;-72
2021/07/25 14:09:12;;;;;;;25.33;20.42;;;;;;;31.70;42.23;100736.28;10499122;28;20028;-73
2021/07/25 14:14:18;;;;;;;30.50;23.92;;;;;;;31.07;41.70;100753.06;10498622;28;20063;-72
2021/07/25 14:19:18;;;;;;;34.67;21.88;;;;;;;30.66;42.68;100759.38;10482052;28;20055;-76
2021/07/25 14:24:19;;;;;;;32.80;19.23;;;;;;;30.46;42.75;100772.13;10497067;28;20032;-74
2021/07/25 14:29:19;;;;;;;27.35;19.80;;;;;;;30.05;43.22;100760.41;10498547;28;20040;-75
2021/07/25 14:34:20;;;;;;;18.52;15.70;;;;;;;29.77;44.27;100754.41;10480096;28;20044;-73
2021/07/25 14:39:21;;;;;;;27.45;17.55;;;;;;;29.48;44.66;100765.38;10496759;28;20185;-75
2021/07/25 14:44:21;;;;;;;24.77;16.10;;;;;;;28.91;45.12;100755.97;10478972;28;20036;-74
2021/07/25 14:49:21;;;;;;;15.20;9.82;;;;;;;27.41;47.94;100823.34;10494538;28;20062;-74
2021/07/25 14:54:23;;;;;;;9.98;6.22;;;;;;;25.60;51.47;100844.66;10495005;28;20425;-73
2021/07/25 14:59:23;;;;;;;16.48;8.65;;;;;;;24.63;56.41;100840.28;10474474;28;20425;-72
2021/07/25 15:04:24;;;;;;;16.02;13.25;;;;;;;24.09;58.09;100861.50;10488365;28;20048;-71
2021/07/25 15:09:25;;;;;;;23.92;14.68;;;;;;;23.79;58.39;100813.63;10488885;28;20112;-72
2021/07/25 15:14:26;;;;;;;18.20;12.88;;;;;;;23.79;57.33;100807.28;10472779;28;20098;-72
2021/07/25 15:19:30;;;;;;;21.50;11.07;;;;;;;23.19;57.22;100702.38;10487917;28;20179;-73
2021/07/25 15:24:31;;;;;;;14.80;10.55;;;;;;;23.75;56.56;100773.84;10471929;28;20057;-73
2021/07/25 15:29:40;;;;;;;8.85;7.60;;;;;;;24.04;56.09;100831.16;10491081;28;20379;-73
2021/07/25 15:34:41;;;;;;;10.63;7.10;;;;;;;24.30;56.07;100840.88;10488564;28;20044;-73
2021/07/25 15:39:41;;;;;;;9.88;6.28;;;;;;;25.45;55.21;100827.09;10470453;28;20141;-73
2021/07/25 15:44:42;;;;;;;10.45;6.13;;;;;;;26.69;52.94;100817.59;10487821;28;20033;-73
2021/07/25 15:49:42;;;;;;;4.90;4.40;;;;;;;27.29;51.47;100807.19;10470350;28;20383;-73
2021/07/25 15:54:43;;;;;;;4.13;3.30;;;;;;;27.42;50.95;100811.06;10487003;28;20033;-73
2021/07/25 15:59:44;;;;;;;4.93;3.03;;;;;;;26.87;50.97;100800.00;10471011;28;20041;-73
2021/07/25 16:04:44;;;;;;;5.88;2.85;;;;;;;26.74;50.94;100786.91;10494630;28;20117;-72
2021/07/25 16:09:45;;;;;;;3.80;2.58;;;;;;;26.93;51.22;100798.78;10455293;28;20127;-73
2021/07/25 16:14:45;;;;;;;8.98;2.67;;;;;;;26.95;51.43;100796.50;10488095;28;20121;-72
2021/07/25 16:19:46;;;;;;;2.50;1.83;;;;;;;26.82;51.45;100800.09;10462582;28;20080;-72
2021/07/25 16:24:46;;;;;;;8.27;3.83;;;;;;;26.81;51.36;100784.56;10478251;28;20060;-72
2021/07/25 16:29:46;;;;;;;8.30;4.13;;;;;;;26.44;52.44;100786.38;10496168;28;20113;-72
2021/07/25 16:34:47;;;;;;;4.75;4.38;;;;;;;25.72;53.56;100764.59;10496646;28;20482;-73
2021/07/25 16:39:47;;;;;;;4.10;3.80;;;;;;;25.61;53.50;100788.88;10480585;28;20042;-73
2021/07/25 16:44:50;;;;;;;6.47;3.60;;;;;;;25.23;53.59;100785.28;10489128;28;20029;-74
2021/07/25 16:49:50;;;;;;;4.93;3.47;;;;;;;25.16;53.51;100774.56;10506211;28;20145;-74
2021/07/25 16:54:51;;;;;;;5.95;3.58;;;;;;;23.84;54.89;100693.88;10506234;28;20578;-74
2021/07/25 16:59:51;;;;;;;3.28;2.92;;;;;;;23.14;56.88;100625.91;10471232;28;20028;-74
2021/07/25 17:04:52;;;;;;;3.70;3.28;;;;;;;23.89;56.65;100747.16;10486627;28;20028;-74
2021/07/25 17:09:52;;;;;;;3.72;3.42;;;;;;;24.08;56.17;100750.03;10487759;28;20035;-74
2021/07/25 17:14:52;;;;;;;5.25;4.30;;;;;;;24.12;57.00;100753.88;10504038;28;20492;-74
2021/07/25 17:19:54;;;;;;;6.80;5.47;;;;;;;23.78;57.45;100755.88;10504907;28;20086;-74
2021/07/25 17:24:56;;;;;;;5.90;5.45;;;;;;;23.75;57.26;100760.03;10486597;28;20143;-75
2021/07/25 17:29:57;;;;;;;6.03;5.57;;;;;;;23.76;56.97;100775.50;10503264;28;20484;-74
2021/07/25 17:34:57;;;;;;;9.68;7.07;;;;;;;23.85;56.32;100759.13;10504112;28;20040;-74
2021/07/25 17:39:58;;;;;;;10.05;5.95;;;;;;;23.48;56.49;100654.63;10504855;28;20456;-74
2021/07/25 17:44:58;;;;;;;8.45;7.03;;;;;;;24.39;56.08;100757.22;10503402;28;20047;-74
2021/07/25 17:49:59;;;;;;;7.47;5.85;;;;;;;24.57;56.17;100767.56;10503473;28;20047;-74
2021/07/25 17:54:59;;;;;;;6.50;6.00;;;;;;;24.36;55.17;100695.78;10486186;28;20127;-74
2021/07/25 18:00:00;;;;;;;6.18;4.88;;;;;;;24.77;55.39;100780.34;10503014;28;20514;-74
2021/07/25 18:05:01;;;;;;;6.10;5.32;;;;;;;24.43;57.27;100783.22;10503390;28;20025;-74
2021/07/25 18:10:01;;;;;;;6.28;4.68;;;;;;;23.73;56.33;100690.34;10502338;28;20029;-74
2021/07/25 18:15:01;;;;;;;6.95;4.60;;;;;;;24.39;56.14;100802.31;10503524;28;20028;-74
2021/07/25 18:20:02;;;;;;;4.00;3.58;;;;;;;24.43;56.13;100800.63;10503328;28;20036;-74
2021/07/25 18:25:03;;;;;;;4.70;4.18;;;;;;;24.14;55.64;100781.25;10486727;28;20056;-74
2021/07/25 18:30:04;;;;;;;4.15;3.67;;;;;;;23.90;56.17;100757.13;10501858;28;20037;-73
2021/07/25 18:35:05;;;;;;;4.28;3.65;;;;;;;24.35;55.85;100795.72;10484585;28;20041;-74
2021/07/25 18:40:06;;;;;;;3.13;2.92;;;;;;;24.44;55.53;100810.63;10483032;28;20037;-74
2021/07/25 18:45:07;;;;;;;4.07;2.97;;;;;;;24.00;54.46;100792.19;10501130;28;20040;-74
2021/07/25 18:50:08;;;;;;;2.38;2.17;;;;;;;23.86;54.71;100816.06;10500152;28;20037;-74
2021/07/25 18:55:09;;;;;;;5.85;3.47;;;;;;;23.98;54.72;100819.28;10500767;28;20119;-74
2021/07/25 19:00:10;;;;;;;13.25;12.07;;;;;;;24.01;54.20;100817.91;10499651;28;20032;-73
2021/07/25 19:05:11;;;;;;;2.40;2.25;;;;;;;23.79;54.10;100813.63;10499007;28;20058;-73
2021/07/25 19:10:12;;;;;;;3.33;3.03;;;;;;;23.08;55.89;100775.38;10492918;28;20032;-73
2021/07/25 19:15:12;;;;;;;3.42;2.97;;;;;;;23.27;55.86;100828.88;10491591;28;20052;-73
2021/07/25 19:20:13;;;;;;;6.38;3.10;;;;;;;23.33;55.37;100836.03;10492269;28;20056;-73
2021/07/25 19:25:13;;;;;;;4.25;3.85;;;;;;;23.43;55.41;100837.91;10474914;28;20087;-73
2021/07/25 19:30:14;;;;;;;2.67;2.47;;;;;;;23.36;55.60;100829.94;10474021;28;20045;-73
2021/07/25 19:35:14;;;;;;;4.32;3.17;;;;;;;23.37;55.86;100839.84;10474885;28;20033;-73
2021/07/25 19:40:15;;;;;;;3.65;3.35;;;;;;;23.38;55.96;100832.38;10490958;28;20421;-73
2021/07/25 19:45:16;;;;;;;4.45;3.33;;;;;;;23.28;56.23;100819.47;10491648;28;20145;-74
2021/07/25 19:50:16;;;;;;;4.72;4.20;;;;;;;22.79;57.41;100811.91;10472276;28;20108;-73
2021/07/25 19:55:17;;;;;;;4.40;3.92;;;;;;;22.93;57.61;100848.88;10472576;28;20043;-73
2021/07/25 20:00:17;;;;;;;6.63;5.60;;;;;;;22.82;58.51;100861.06;10490249;28;20053;-73
2021/07/25 20:05:18;;;;;;;6.05;4.70;;;;;;;22.84;58.03;100835.91;10490059;28;20486;-73
2021/07/25 20:10:18;;;;;;;8.68;4.53;;;;;;;22.91;57.93;100842.81;10489114;28;20047;-73
2021/07/25 20:15:19;;;;;;;4.95;4.32;;;;;;;22.74;57.70;100817.44;10488930;28;20056;-73
2021/07/25 20:20:19;;;;;;;6.78;5.38;;;;;;;23.05;57.89;100872.63;10473169;28;20043;-73
2021/07/25 20:25:20;;;;;;;5.85;4.97;;;;;;;22.83;59.09;100886.72;10472156;28;20048;-73
2021/07/25 20:30:21;;;;;;;4.82;4.40;;;;;;;22.73;59.98;100918.75;10491422;28;20032;-73
2021/07/25 20:35:21;;;;;;;5.80;5.30;;;;;;;22.62;59.99;100889.53;10491106;28;20067;-72
2021/07/25 20:40:22;;;;;;;5.35;4.85;;;;;;;22.63;60.01;100868.28;10474175;28;20072;-73
2021/07/25 20:45:23;;;;;;;4.03;3.63;;;;;;;21.80;59.72;100712.25;10495799;28;20036;-74
2021/07/25 20:50:23;;;;;;;3.15;2.78;;;;;;;22.39;61.11;100893.69;10456352;28;20059;-74
2021/07/25 20:55:24;;;;;;;2.28;2.10;;;;;;;21.93;60.40;100899.16;10490149;28;20437;-74
2021/07/25 21:00:25;;;;;;;2.00;1.88;;;;;;;21.53;61.50;100883.34;10490456;28;20077;-74
2021/07/25 21:05:25;;;;;;;3.28;2.33;;;;;;;20.94;63.21;100867.94;10477880;28;20064;-73
2021/07/25 21:10:26;;;;;;;3.05;2.22;;;;;;;20.55;63.56;100801.38;10480651;28;20052;-74
2021/07/25 21:15:26;;;;;;;3.03;1.95;;;;;;;21.14;63.49;100898.31;10497756;28;20374;-73
2021/07/25 21:20:27;;;;;;;4.47;2.58;;;;;;;20.74;64.18;100892.56;10480032;28;20063;-72
2021/07/25 21:25:27;;;;;;;4.15;2.80;;;;;;;20.55;66.15;100900.41;10497493;28;20143;-71
2021/07/25 21:30:28;;;;;;;2.53;2.33;;;;;;;20.23;67.90;100892.16;10504074;28;20071;-73
2021/07/25 21:35:28;;;;;;;10.23;2.70;;;;;;;20.37;67.02;100876.88;10505036;28;20162;-74
2021/07/25 21:40:29;;;;;;;2.80;2.42;;;;;;;20.09;67.79;100869.78;10504739;28;20170;-74
2021/07/25 21:45:29;;;;;;;1.73;1.63;;;;;;;20.16;67.64;100889.63;10504085;28;20090;-74
2021/07/25 21:50:29;;;;;;;8.40;2.03;;;;;;;20.00;69.26;100899.66;10503375;28;20125;-74
2021/07/25 21:55:30;;;;;;;1.83;1.52;;;;;;;19.67;66.94;100821.84;10504372;28;20415;-73
2021/07/25 22:00:33;;;;;;;1.30;1.20;;;;;;;19.34;66.82;100750.66;10503646;28;20482;-74
2021/07/25 22:05:33;;;;;;;2.33;2.13;;;;;;;20.39;65.64;100882.97;10485232;28;20056;-75
2021/07/25 22:10:33;;;;;;;3.00;2.30;;;;;;;20.54;64.59;100893.25;10502160;28;20039;-75
2021/07/25 22:15:35;;;;;;;2.40;1.90;;;;;;;20.60;63.79;100889.47;10486162;28;20501;-75
2021/07/25 22:20:35;;;;;;;3.08;2.00;;;;;;;20.59;63.59;100879.56;10484001;28;20111;-75
2021/07/25 22:25:35;;;;;;;2.47;2.28;;;;;;;20.57;63.82;100873.47;10484008;28;20086;-75
2021/07/25 22:30:36;;;;;;;5.28;3.17;;;;;;;20.46;64.14;100874.50;10483529;28;20033;-75
2021/07/25 22:35:36;;;;;;;2.92;2.65;;;;;;;20.10;63.84;100833.78;10483889;28;20064;-75
2021/07/25 22:40:38;;;;;;;5.40;3.30;;;;;;;20.24;65.79;100874.59;10483510;28;20122;-75
2021/07/25 22:45:38;;;;;;;6.70;3.45;;;;;;;20.31;65.45;100869.69;10500881;28;20039;-75
2021/07/25 22:50:39;;;;;;;4.50;3.53;;;;;;;19.80;65.42;100776.63;10500968;28;20528;-75